Time;durP1;ratioP1;P1;durP2;ratioP2;P2;SDS_P1;SDS_P2;PMS_P1;PMS_P2;Temp;Humidity;BMP_temperature;BMP_pressure;BME280_temperature;BME280_humidity;BME280_pressure;Samples;Min_cycle;Max_cycle;Signal;HPM_P1;HPM_P2
2023/06/17 00:01:14;;;;;;;3.40;3.10;;;20.70;55.80;19.90;96458.00;;;;5056239;28;20200;-84
2023/06/17 00:03:42;;;;;;;3.43;3.13;;;20.70;56.00;19.80;96447.00;;;;5054244;28;20681;-84
2023/06/17 00:06:10;;;;;;;3.20;2.90;;;20.60;56.10;19.80;96447.00;;;;5049629;28;20197;-84
2023/06/17 00:08:37;;;;;;;2.80;2.60;;;20.60;56.30;19.80;96443.00;;;;5057261;28;20242;-82
2023/06/17 00:11:04;;;;;;;4.67;3.27;;;20.60;56.40;19.70;96443.00;;;;5052212;28;20198;-84
2023/06/17 00:13:32;;;;;;;2.93;2.73;;;20.50;56.40;19.70;96444.00;;;;5057752;28;20660;-85
2023/06/17 00:16:00;;;;;;;3.23;3.03;;;20.50;56.50;19.60;96445.00;;;;5050279;28;20232;-84
2023/06/17 00:18:32;;;;;;;3.17;2.87;;;20.50;56.60;19.60;96440.00;;;;5050259;28;20280;-84
2023/06/17 00:21:00;;;;;;;3.23;2.97;;;20.40;56.70;19.50;96435.00;;;;5053722;28;20193;-83
2023/06/17 00:23:28;;;;;;;3.33;2.97;;;20.40;56.70;19.50;96441.00;;;;5055692;28;20300;-83
2023/06/17 00:25:56;;;;;;;3.57;3.27;;;20.30;56.80;19.40;96437.00;;;;5055042;28;20583;-84
2023/06/17 00:28:23;;;;;;;3.13;2.93;;;20.30;56.80;19.40;96440.00;;;;5054669;28;20746;-83
2023/06/17 00:30:50;;;;;;;3.20;2.90;;;20.20;57.00;19.30;96436.00;;;;5057927;28;20624;-82
2023/06/17 00:33:18;;;;;;;3.50;3.00;;;20.20;57.20;19.30;96437.00;;;;5053453;28;20229;-84
2023/06/17 00:35:47;;;;;;;3.33;3.13;;;20.10;57.20;19.30;96442.00;;;;5058270;28;20228;-84
2023/06/17 00:38:15;;;;;;;3.63;3.30;;;20.10;57.40;19.30;96441.00;;;;5039603;28;20193;-84
2023/06/17 00:40:42;;;;;;;3.37;2.90;;;20.10;57.40;19.20;96441.00;;;;5057285;28;20719;-84
2023/06/17 00:43:09;;;;;;;3.03;2.73;;;20.00;57.40;19.20;96439.00;;;;5057842;28;20287;-81
2023/06/17 00:45:38;;;;;;;9.03;3.40;;;20.00;57.50;19.10;96442.00;;;;5056118;28;20825;-84
2023/06/17 00:48:09;;;;;;;5.47;2.90;;;19.90;57.40;19.10;96434.00;;;;5072195;28;20205;-84
2023/06/17 00:50:38;;;;;;;3.20;3.00;;;19.90;57.50;19.00;96437.00;;;;5056993;28;20189;-84
2023/06/17 00:53:08;;;;;;;3.10;2.90;;;19.90;57.40;18.90;96434.00;;;;5053947;28;20222;-84
2023/06/17 00:55:39;;;;;;;3.20;2.90;;;19.80;57.40;18.90;96427.00;;;;5060238;28;20262;-84
2023/06/17 00:58:07;;;;;;;3.33;2.90;;;19.80;57.30;18.80;96417.00;;;;5059887;28;20247;-84
2023/06/17 01:00:34;;;;;;;3.17;2.97;;;19.70;57.30;18.80;96425.00;;;;5055107;28;20208;-83
2023/06/17 01:03:02;;;;;;;4.23;3.13;;;19.70;57.30;18.70;96418.00;;;;5077357;28;20717;-83
2023/06/17 01:05:30;;;;;;;3.40;3.10;;;19.60;57.40;18.60;96418.00;;;;5063677;28;20201;-84
2023/06/17 01:08:20;;;;;;;3.73;3.00;;;19.60;57.60;18.60;96416.00;;;;5062601;28;20196;-84
2023/06/17 01:11:00;;;;;;;3.03;2.83;;;19.50;58.00;18.50;96425.00;;;;5060470;28;20274;-84
2023/06/17 01:13:29;;;;;;;3.43;3.13;;;19.50;57.70;18.50;96414.00;;;;5055253;28;20220;-84
2023/06/17 01:15:58;;;;;;;3.67;2.70;;;19.40;57.80;18.40;96425.00;;;;5055506;28;20185;-82
2023/06/17 01:18:27;;;;;;;3.10;2.80;;;19.30;58.10;18.40;96419.00;;;;5059940;28;20193;-84
2023/06/17 01:20:55;;;;;;;3.53;3.03;;;19.30;58.10;18.40;96418.00;;;;5056514;28;20197;-84
2023/06/17 01:23:34;;;;;;;2.90;2.70;;;19.30;58.30;18.30;96420.00;;;;5061628;28;20226;-84
2023/06/17 01:26:03;;;;;;;3.47;3.17;;;19.20;58.60;18.30;96422.00;;;;5057433;28;20288;-81
2023/06/17 01:28:33;;;;;;;2.93;2.73;;;19.20;58.40;18.30;96430.00;;;;5058383;28;21990;-84
2023/06/17 01:31:00;;;;;;;3.43;3.13;;;19.20;58.50;18.20;96417.00;;;;5063656;28;20276;-84
2023/06/17 01:33:28;;;;;;;3.80;3.10;;;19.10;58.70;18.20;96410.00;;;;5054567;28;20308;-84
2023/06/17 01:36:04;;;;;;;4.27;3.37;;;19.10;58.80;18.20;96417.00;;;;5068652;28;20192;-84
2023/06/17 01:38:45;;;;;;;3.97;2.90;;;19.10;59.00;18.10;96412.00;;;;5060713;28;20611;-84
2023/06/17 01:41:19;;;;;;;3.53;3.23;;;19.00;58.90;18.10;96425.00;;;;5062909;28;20208;-84
2023/06/17 01:43:49;;;;;;;2.90;2.70;;;19.00;59.00;18.00;96423.00;;;;5061344;28;20299;-83
2023/06/17 01:46:17;;;;;;;3.30;3.00;;;19.00;58.90;18.00;96421.00;;;;5064789;28;20207;-83
2023/06/17 01:48:45;;;;;;;3.33;3.13;;;18.90;58.80;18.00;96430.00;;;;5065716;28;20220;-84
2023/06/17 01:51:12;;;;;;;3.70;3.40;;;18.90;58.80;17.90;96426.00;;;;5063666;28;20223;-84
2023/06/17 01:53:41;;;;;;;3.77;3.47;;;18.90;58.80;17.90;96424.00;;;;5068540;28;20266;-84
2023/06/17 01:56:09;;;;;;;3.57;3.27;;;18.80;58.80;17.80;96415.00;;;;5063151;28;20264;-84
2023/06/17 01:58:40;;;;;;;3.57;3.27;;;18.80;58.90;17.80;96421.00;;;;5063049;28;20224;-84
2023/06/17 02:01:08;;;;;;;4.17;3.60;;;18.70;59.10;17.70;96423.00;;;;5070403;28;20197;-83
2023/06/17 02:03:35;;;;;;;3.93;3.53;;;18.70;59.00;17.70;96422.00;;;;5079234;28;20331;-84
2023/06/17 02:06:03;;;;;;;3.53;3.23;;;18.60;59.10;17.70;96418.00;;;;5061367;28;20726;-83
2023/06/17 02:08:31;;;;;;;3.57;3.27;;;18.60;59.20;17.60;96420.00;;;;5052337;28;20231;-84
2023/06/17 02:10:58;;;;;;;3.70;3.37;;;18.50;59.20;17.60;96416.00;;;;5063483;28;20193;-82
2023/06/17 02:13:26;;;;;;;5.93;3.80;;;18.50;59.20;17.50;96422.00;;;;5071396;28;20276;-83
2023/06/17 02:15:55;;;;;;;4.03;3.57;;;18.50;59.20;17.50;96421.00;;;;5065844;28;20188;-82
2023/06/17 02:18:24;;;;;;;3.60;3.30;;;18.40;59.30;17.40;96418.00;;;;5071208;28;20212;-84
2023/06/17 02:20:51;;;;;;;3.53;3.23;;;18.40;59.20;17.40;96411.00;;;;5067402;28;20201;-84
2023/06/17 02:23:18;;;;;;;4.53;4.13;;;18.30;59.80;17.30;96411.00;;;;5070137;28;20227;-83
2023/06/17 02:25:46;;;;;;;4.20;3.80;;;18.30;59.30;17.30;96409.00;;;;5072106;28;20228;-84
2023/06/17 02:28:13;;;;;;;3.90;3.60;;;18.20;59.30;17.20;96411.00;;;;5072113;28;20212;-83
2023/06/17 02:30:40;;;;;;;3.63;3.33;;;18.20;59.40;17.20;96407.00;;;;5063636;28;20232;-84
2023/06/17 02:33:11;;;;;;;4.77;4.10;;;18.20;59.50;17.20;96414.00;;;;5063713;28;20230;-84
2023/06/17 02:35:39;;;;;;;4.67;3.80;;;18.10;59.70;17.10;96416.00;;;;5069304;28;20200;-83
2023/06/17 02:38:07;;;;;;;3.93;3.63;;;18.10;59.80;17.10;96415.00;;;;5061219;28;20299;-84
2023/06/17 02:40:34;;;;;;;4.23;3.87;;;18.10;60.10;17.10;96413.00;;;;5060786;28;20276;-84
2023/06/17 02:43:01;;;;;;;4.90;4.20;;;18.00;60.30;17.10;96425.00;;;;5060340;28;20203;-82
2023/06/17 02:45:29;;;;;;;3.90;3.60;;;18.00;60.50;17.10;96421.00;;;;5062878;28;20212;-84
2023/06/17 02:47:59;;;;;;;4.27;3.57;;;18.00;60.60;17.10;96416.00;;;;5066329;28;20219;-84
2023/06/17 02:50:28;;;;;;;5.17;4.00;;;18.00;60.50;17.10;96425.00;;;;5070353;28;20193;-84
2023/06/17 02:52:56;;;;;;;3.87;3.57;;;18.00;60.40;17.10;96421.00;;;;5055973;28;20197;-82
2023/06/17 02:55:25;;;;;;;3.73;3.47;;;18.00;60.30;17.00;96426.00;;;;5062840;28;20221;-85
2023/06/17 02:57:52;;;;;;;4.70;4.20;;;18.00;60.20;17.00;96423.00;;;;5065807;28;20563;-83
2023/06/17 03:00:20;;;;;;;4.53;4.13;;;17.90;60.20;17.00;96425.00;;;;5059477;28;20814;-85
2023/06/17 03:02:48;;;;;;;3.47;3.17;;;17.90;60.30;16.90;96421.00;;;;5060983;28;20204;-84
2023/06/17 03:05:19;;;;;;;3.53;3.33;;;17.90;60.40;16.90;96422.00;;;;5060932;28;20300;-84
2023/06/17 03:07:48;;;;;;;3.70;3.40;;;17.90;60.50;16.90;96423.00;;;;5062805;28;20192;-84
2023/06/17 03:10:17;;;;;;;3.47;3.17;;;17.90;60.80;16.90;96413.00;;;;5061226;28;20238;-84
2023/06/17 03:12:44;;;;;;;3.63;2.93;;;17.80;60.80;16.80;96412.00;;;;5060509;28;20230;-82
2023/06/17 03:15:13;;;;;;;3.47;3.17;;;17.80;60.90;16.80;96413.00;;;;5061952;28;20291;-84
2023/06/17 03:17:41;;;;;;;3.33;3.13;;;17.70;61.00;16.80;96413.00;;;;5062200;28;20251;-84
2023/06/17 03:20:10;;;;;;;3.33;3.13;;;17.70;61.00;16.80;96414.00;;;;5058359;28;20266;-84
2023/06/17 03:22:37;;;;;;;3.40;3.10;;;17.70;61.80;16.80;96415.00;;;;5059761;28;20268;-84
2023/06/17 03:25:08;;;;;;;3.40;3.10;;;17.70;61.10;16.70;96413.00;;;;5065240;28;20284;-83
2023/06/17 03:27:36;;;;;;;3.30;3.03;;;17.70;61.40;16.70;96414.00;;;;5062793;28;20236;-84
2023/06/17 03:30:04;;;;;;;3.83;3.43;;;17.70;61.30;16.70;96418.00;;;;5068870;28;20224;-83
2023/06/17 03:32:31;;;;;;;3.20;3.00;;;17.60;61.30;16.70;96417.00;;;;5064651;28;20283;-84
2023/06/17 03:34:59;;;;;;;3.60;3.30;;;17.70;61.40;16.70;96425.00;;;;5070720;28;20272;-84
2023/06/17 03:37:26;;;;;;;3.70;3.40;;;17.60;61.40;16.70;96422.00;;;;5052886;28;20225;-84
2023/06/17 03:39:54;;;;;;;3.20;3.00;;;17.60;61.50;16.70;96419.00;;;;5060428;28;20197;-84
2023/06/17 03:42:22;;;;;;;3.37;3.03;;;17.60;61.40;16.70;96419.00;;;;5072544;28;20242;-83
2023/06/17 03:44:50;;;;;;;3.90;3.60;;;17.60;61.50;16.60;96415.00;;;;5071996;28;20204;-83
2023/06/17 03:47:18;;;;;;;3.93;3.60;;;17.60;61.50;16.60;96416.00;;;;5070249;28;20224;-82
2023/06/17 03:49:45;;;;;;;3.83;3.53;;;17.60;61.60;16.60;96418.00;;;;5074090;28;20220;-83
2023/06/17 03:52:15;;;;;;;4.00;3.67;;;17.50;61.60;16.60;96421.00;;;;5069734;28;20282;-83
2023/06/17 03:54:43;;;;;;;3.30;3.10;;;17.50;61.70;16.60;96418.00;;;;5073383;28;20231;-83
2023/06/17 03:57:11;;;;;;;3.67;3.37;;;17.50;62.60;16.60;96414.00;;;;5063033;28;20296;-84
2023/06/17 03:59:40;;;;;;;3.63;3.33;;;17.50;61.90;16.60;96416.00;;;;5057175;28;20720;-84
2023/06/17 04:02:08;;;;;;;3.80;3.50;;;17.50;62.10;16.60;96418.00;;;;5051827;28;20252;-85
2023/06/17 04:04:36;;;;;;;4.37;3.20;;;17.50;62.20;16.60;96415.00;;;;5053450;28;20227;-84
2023/06/17 04:07:04;;;;;;;3.63;3.30;;;17.50;62.30;16.60;96408.00;;;;5046353;28;20255;-84
2023/06/17 04:09:33;;;;;;;4.10;3.70;;;17.50;62.40;16.60;96421.00;;;;5054060;28;20232;-84
2023/06/17 04:12:01;;;;;;;4.10;3.70;;;17.50;62.50;16.60;96412.00;;;;5030452;28;20196;-83
2023/06/17 04:14:28;;;;;;;4.70;3.50;;;17.50;62.70;16.60;96416.00;;;;5045247;28;20701;-84
2023/06/17 04:16:59;;;;;;;4.43;4.07;;;17.50;62.90;16.60;96418.00;;;;5053523;28;20196;-84
2023/06/17 04:19:26;;;;;;;3.47;3.23;;;17.50;62.90;16.60;96416.00;;;;5053424;28;20258;-84
2023/06/17 04:21:54;;;;;;;4.07;3.70;;;17.50;62.90;16.70;96410.00;;;;5053178;28;20677;-84
2023/06/17 04:24:21;;;;;;;4.40;4.00;;;17.50;62.90;16.70;96410.00;;;;5053470;28;20599;-84
2023/06/17 04:26:52;;;;;;;4.30;3.90;;;17.60;63.10;16.70;96412.00;;;;5057100;28;20756;-84
2023/06/17 04:29:20;;;;;;;4.00;3.47;;;17.60;63.20;16.80;96409.00;;;;5055153;28;20588;-84
2023/06/17 04:31:47;;;;;;;4.20;3.80;;;17.60;63.20;16.80;96405.00;;;;5058675;28;20189;-83
2023/06/17 04:34:21;;;;;;;4.07;3.77;;;17.60;63.30;16.80;96408.00;;;;5064275;28;20572;-84
2023/06/17 04:36:49;;;;;;;4.20;3.80;;;17.60;63.40;16.80;96419.00;;;;5070255;28;20260;-84
2023/06/17 04:39:17;;;;;;;4.07;3.77;;;17.70;63.30;16.90;96407.00;;;;5064856;28;20311;-84
2023/06/17 04:41:47;;;;;;;4.00;3.60;;;17.70;63.40;16.90;96410.00;;;;5066455;28;20196;-84
2023/06/17 04:44:14;;;;;;;4.53;4.13;;;17.70;63.40;17.00;96408.00;;;;5063913;28;20266;-83
2023/06/17 04:46:41;;;;;;;3.97;3.70;;;17.80;63.50;17.00;96410.00;;;;5061694;28;20236;-84
2023/06/17 04:49:09;;;;;;;4.13;3.73;;;17.80;63.40;17.00;96406.00;;;;5064423;28;20200;-84
2023/06/17 04:51:40;;;;;;;3.93;3.63;;;17.80;63.40;17.10;96407.00;;;;5067772;28;20201;-85
2023/06/17 04:54:07;;;;;;;3.60;3.30;;;17.90;63.60;17.10;96419.00;;;;5072575;28;20212;-84
2023/06/17 04:56:35;;;;;;;3.53;3.23;;;17.90;63.60;17.10;96422.00;;;;5084390;28;20279;-84
2023/06/17 04:59:02;;;;;;;4.93;4.47;;;17.90;63.70;17.20;96421.00;;;;5060621;28;20295;-84
2023/06/17 05:01:29;;;;;;;4.20;3.90;;;18.00;63.60;17.20;96417.00;;;;5072660;28;20275;-84
2023/06/17 05:03:57;;;;;;;4.07;3.70;;;18.00;63.50;17.30;96415.00;;;;5074925;28;20215;-84
2023/06/17 05:06:24;;;;;;;4.43;3.70;;;18.10;63.60;17.30;96414.00;;;;5062857;28;20254;-85
2023/06/17 05:08:53;;;;;;;4.20;3.70;;;18.10;63.50;17.40;96418.00;;;;5061114;28;20203;-84
2023/06/17 05:11:21;;;;;;;4.17;3.80;;;18.10;63.70;17.50;96416.00;;;;5057428;28;20232;-85
2023/06/17 05:13:48;;;;;;;4.07;3.77;;;18.20;63.50;17.50;96416.00;;;;5055984;28;20648;-84
2023/06/17 05:16:16;;;;;;;4.60;4.13;;;18.20;63.30;17.60;96413.00;;;;5056945;28;20211;-85
2023/06/17 05:18:43;;;;;;;3.80;3.50;;;18.30;63.20;17.60;96422.00;;;;5061138;28;20763;-85
2023/06/17 05:21:10;;;;;;;3.80;3.43;;;18.30;63.10;17.60;96418.00;;;;5056203;28;20193;-84
2023/06/17 05:23:38;;;;;;;4.40;4.03;;;18.40;63.10;17.70;96424.00;;;;5057849;28;20240;-85
2023/06/17 05:26:06;;;;;;;5.13;3.30;;;18.40;62.90;17.80;96432.00;;;;5055634;28;20572;-84
2023/06/17 05:28:33;;;;;;;4.33;3.93;;;18.50;63.00;17.80;96429.00;;;;5060961;28;20300;-84
2023/06/17 05:31:01;;;;;;;4.60;3.70;;;18.50;63.00;17.90;96438.00;;;;5034903;28;20192;-85
2023/06/17 05:33:30;;;;;;;3.87;3.47;;;18.60;62.80;18.00;96441.00;;;;5048203;28;20320;-84
2023/06/17 05:36:00;;;;;;;4.00;3.60;;;18.60;62.70;18.00;96440.00;;;;5055823;28;20223;-83
2023/06/17 05:38:27;;;;;;;4.80;3.60;;;18.70;62.80;18.10;96437.00;;;;5053492;28;20608;-86
2023/06/17 05:40:55;;;;;;;3.53;3.23;;;18.70;62.60;18.10;96450.00;;;;5066671;28;20197;-85
2023/06/17 05:43:27;;;;;;;4.13;3.80;;;18.80;62.70;18.20;96447.00;;;;5054736;28;20430;-85
2023/06/17 05:45:54;;;;;;;4.23;3.93;;;18.80;62.70;18.20;96435.00;;;;5054201;28;20280;-83
2023/06/17 05:48:22;;;;;;;3.73;3.43;;;18.90;62.60;18.30;96443.00;;;;5051441;28;20300;-83
2023/06/17 05:50:49;;;;;;;3.77;3.40;;;19.00;62.60;18.40;96434.00;;;;5057044;28;20236;-85
2023/06/17 05:53:17;;;;;;;4.20;3.80;;;19.00;62.30;18.40;96441.00;;;;5052615;28;20207;-82
2023/06/17 05:55:45;;;;;;;3.60;3.30;;;19.10;62.20;18.50;96435.00;;;;5052485;28;20273;-83
2023/06/17 05:58:12;;;;;;;3.80;3.50;;;19.10;62.10;18.50;96442.00;;;;5034677;28;20225;-84
2023/06/17 06:00:42;;;;;;;3.50;3.20;;;19.20;62.10;18.60;96440.00;;;;5056937;28;20283;-84
2023/06/17 06:03:09;;;;;;;4.13;3.37;;;19.30;62.20;18.70;96442.00;;;;5054966;28;20283;-84
2023/06/17 06:05:36;;;;;;;5.60;3.47;;;19.30;62.10;18.80;96446.00;;;;5055260;28;20229;-83
2023/06/17 06:08:04;;;;;;;3.93;3.63;;;19.40;62.00;18.90;96439.00;;;;5059640;28;20288;-84
2023/06/17 06:10:32;;;;;;;6.60;4.00;;;19.50;62.10;19.00;96441.00;;;;5062851;28;20207;-84
2023/06/17 06:13:00;;;;;;;4.53;3.63;;;19.50;61.80;19.10;96451.00;;;;5054448;28;20642;-84
2023/06/17 06:15:27;;;;;;;4.13;3.73;;;19.60;61.60;19.20;96448.00;;;;5059637;28;21643;-87
2023/06/17 06:17:56;;;;;;;4.07;3.30;;;19.70;61.30;19.20;96440.00;;;;5048277;28;20228;-85
2023/06/17 06:20:23;;;;;;;3.93;3.63;;;19.80;60.80;19.40;96452.00;;;;5052513;28;20658;-86
2023/06/17 06:22:51;;;;;;;3.67;3.33;;;19.90;60.80;19.50;96452.00;;;;5053210;28;20197;-84
2023/06/17 06:25:18;;;;;;;4.27;3.87;;;20.00;60.80;19.60;96449.00;;;;5059057;28;20226;-86
2023/06/17 06:27:46;;;;;;;3.60;3.37;;;20.10;60.70;19.70;96461.00;;;;5052308;28;20213;-87
2023/06/17 06:30:15;;;;;;;3.73;3.43;;;20.10;60.40;19.80;96457.00;;;;5053773;28;20204;-87
2023/06/17 06:32:42;;;;;;;3.80;3.50;;;20.30;60.40;19.90;96467.00;;;;5038830;28;20234;-86
2023/06/17 06:35:11;;;;;;;3.30;3.10;;;20.40;59.90;20.00;96458.00;;;;5045599;28;20236;-86
2023/06/17 06:37:39;;;;;;;3.83;3.50;;;20.50;59.70;20.10;96464.00;;;;5054667;28;20271;-85
2023/06/17 06:40:08;;;;;;;4.20;3.23;;;20.60;59.50;20.20;96463.00;;;;5060422;28;20819;-87
2023/06/17 06:42:36;;;;;;;3.60;3.30;;;20.70;59.40;20.30;96464.00;;;;5042536;28;20668;-88
2023/06/17 06:45:03;;;;;;;4.83;3.33;;;20.80;59.20;20.40;96469.00;;;;5046484;28;20220;-88
2023/06/17 06:47:30;;;;;;;4.47;3.57;;;20.90;59.10;20.50;96473.00;;;;5058429;28;20192;-87
2023/06/17 06:49:58;;;;;;;3.57;3.27;;;20.90;58.90;20.60;96476.00;;;;5051724;28;20680;-87
2023/06/17 06:52:27;;;;;;;3.90;3.20;;;21.10;58.80;20.80;96476.00;;;;5052200;28;20202;-88
2023/06/17 06:54:54;;;;;;;3.03;2.83;;;21.20;58.80;20.90;96478.00;;;;5035254;28;20215;-87
2023/06/17 06:57:22;;;;;;;4.03;3.47;;;21.30;59.00;21.00;96479.00;;;;5046861;28;20208;-88
2023/06/17 06:59:50;;;;;;;2.80;2.60;;;21.40;59.10;21.20;96474.00;;;;5050238;28;20217;-85
2023/06/17 07:02:17;;;;;;;3.43;3.00;;;21.50;59.10;21.30;96480.00;;;;5021505;28;20210;-86
2023/06/17 07:04:45;;;;;;;3.30;3.00;;;21.60;59.30;21.50;96477.00;;;;5055362;28;20227;-86
2023/06/17 07:07:13;;;;;;;3.03;2.80;;;21.80;59.10;21.60;96484.00;;;;5055087;28;20581;-86
2023/06/17 07:09:42;;;;;;;2.93;2.73;;;21.90;58.70;21.80;96487.00;;;;5054258;28;20203;-86
2023/06/17 07:12:11;;;;;;;3.20;3.00;;;22.10;58.80;21.90;96480.00;;;;5056016;28;20236;-86
2023/06/17 07:14:39;;;;;;;3.30;2.90;;;22.30;58.70;22.10;96486.00;;;;5063586;28;20628;-86
2023/06/17 07:17:06;;;;;;;3.10;2.90;;;22.40;58.50;22.30;96487.00;;;;5050693;28;20276;-85
2023/06/17 07:19:33;;;;;;;3.10;2.90;;;22.50;58.40;22.40;96483.00;;;;5052226;28;20678;-83
2023/06/17 07:22:01;;;;;;;3.43;2.60;;;22.70;58.30;22.60;96489.00;;;;5052636;28;20669;-84
2023/06/17 07:24:28;;;;;;;3.37;2.93;;;22.90;58.30;22.80;96497.00;;;;5044346;28;20303;-85
2023/06/17 07:26:57;;;;;;;3.07;2.63;;;23.00;58.20;22.90;96493.00;;;;5051643;28;20239;-85
2023/06/17 07:29:25;;;;;;;2.60;2.40;;;23.20;57.50;23.10;96495.00;;;;5054151;28;20204;-85
2023/06/17 07:31:52;;;;;;;3.20;2.67;;;23.40;57.10;23.20;96486.00;;;;5059684;28;20203;-84
2023/06/17 07:34:19;;;;;;;3.00;2.80;;;23.50;56.60;23.40;96490.00;;;;5055821;28;20220;-85
2023/06/17 07:36:52;;;;;;;2.70;2.50;;;23.70;57.30;23.60;96496.00;;;;5061363;28;20203;-85
2023/06/17 07:39:20;;;;;;;2.67;2.47;;;23.90;56.70;23.70;96479.00;;;;5065232;28;20247;-83
2023/06/17 07:41:47;;;;;;;2.97;2.37;;;24.00;56.30;24.00;96486.00;;;;5053233;28;20192;-84
2023/06/17 07:44:17;;;;;;;6.27;2.67;;;24.20;55.60;24.20;96490.00;;;;5059884;28;20640;-83
2023/06/17 07:46:45;;;;;;;2.27;2.17;;;24.30;55.00;24.30;96478.00;;;;5053358;28;20197;-84
2023/06/17 07:49:12;;;;;;;6.63;2.90;;;24.60;55.30;24.50;96488.00;;;;5036726;28;20254;-82
2023/06/17 07:51:39;;;;;;;4.30;2.50;;;24.70;55.20;24.70;96483.00;;;;5043002;28;20277;-83
2023/06/17 07:54:06;;;;;;;2.33;2.23;;;24.90;54.40;24.90;96486.00;;;;5053409;28;20242;-84
2023/06/17 07:56:34;;;;;;;2.40;2.10;;;25.10;53.40;25.20;96490.00;;;;5052649;28;20342;-83
2023/06/17 07:59:01;;;;;;;2.47;2.27;;;25.30;53.30;25.40;96484.00;;;;5054603;28;20669;-83
2023/06/17 08:01:33;;;;;;;3.40;2.13;;;25.50;53.10;25.60;96485.00;;;;5051594;28;20220;-83
2023/06/17 08:04:02;;;;;;;2.90;2.70;;;25.60;51.70;25.70;96490.00;;;;5049522;28;20216;-82
2023/06/17 08:06:30;;;;;;;2.47;2.27;;;25.80;51.20;25.90;96494.00;;;;5050284;28;20228;-83
2023/06/17 08:08:57;;;;;;;5.47;2.50;;;26.00;51.00;26.10;96487.00;;;;5058680;28;20204;-83
2023/06/17 08:11:25;;;;;;;2.93;2.60;;;26.20;50.20;26.20;96484.00;;;;5056251;28;20646;-83
2023/06/17 08:13:53;;;;;;;2.37;2.23;;;26.30;49.80;26.40;96494.00;;;;5053529;28;20224;-83
2023/06/17 08:16:20;;;;;;;2.37;2.17;;;26.50;49.90;26.60;96495.00;;;;5059053;28;20227;-84
2023/06/17 08:18:49;;;;;;;2.47;2.27;;;26.70;49.70;26.70;96485.00;;;;5043753;28;20217;-84
2023/06/17 08:21:16;;;;;;;2.57;2.37;;;26.80;48.60;26.80;96497.00;;;;5055472;28;20203;-83
2023/06/17 08:23:43;;;;;;;2.30;2.10;;;26.90;48.50;27.00;96487.00;;;;5054904;28;20577;-84
2023/06/17 08:26:13;;;;;;;3.10;2.50;;;27.10;48.50;27.10;96489.00;;;;5055895;28;20228;-82
2023/06/17 08:28:46;;;;;;;3.97;2.53;;;27.20;47.90;27.20;96489.00;;;;5035103;28;20320;-82
2023/06/17 08:31:14;;;;;;;2.78;2.38;;;27.40;46.80;27.40;96488.00;;;;5055293;28;20228;-80
2023/06/17 08:33:41;;;;;;;2.33;2.13;;;27.50;46.60;27.50;96487.00;;;;5054924;28;20327;-80
2023/06/17 08:36:10;;;;;;;3.42;2.35;;;27.60;46.40;27.60;96489.00;;;;5055526;28;20295;-80
2023/06/17 08:38:41;;;;;;;2.58;2.35;;;27.80;45.80;27.80;96478.00;;;;5056358;28;20248;-79
2023/06/17 08:41:09;;;;;;;3.08;2.50;;;27.90;45.80;27.90;96483.00;;;;5060422;28;20204;-79
2023/06/17 08:43:39;;;;;;;2.33;2.17;;;28.00;45.40;28.00;96476.00;;;;5047602;28;20229;-80
2023/06/17 08:46:07;;;;;;;2.78;2.58;;;28.20;45.50;28.20;96472.00;;;;5031785;28;20288;-79
2023/06/17 08:48:37;;;;;;;2.30;2.10;;;28.30;44.90;28.30;96463.00;;;;5053468;28;20279;-79
2023/06/17 08:51:10;;;;;;;2.50;2.30;;;28.40;44.60;28.40;96463.00;;;;5049825;28;20196;-79
2023/06/17 08:53:38;;;;;;;2.05;1.95;;;28.50;44.50;28.50;96466.00;;;;5049761;28;20676;-81
2023/06/17 08:56:05;;;;;;;2.50;2.30;;;28.70;44.70;28.60;96466.00;;;;5048737;28;20193;-79
2023/06/17 08:58:37;;;;;;;2.42;2.17;;;28.80;44.50;28.70;96472.00;;;;5049170;28;20204;-80
2023/06/17 09:01:06;;;;;;;2.40;2.20;;;28.90;44.30;28.70;96475.00;;;;5045920;28;20585;-79
2023/06/17 09:03:36;;;;;;;1.88;1.77;;;28.90;43.90;28.70;96471.00;;;;5048674;28;20299;-80
2023/06/17 09:06:04;;;;;;;2.50;2.30;;;29.00;43.20;28.60;96473.00;;;;5059062;28;20209;-79
2023/06/17 09:08:33;;;;;;;2.17;2.08;;;29.00;42.90;28.60;96469.00;;;;5056482;28;20232;-81
2023/06/17 09:11:05;;;;;;;2.53;2.33;;;28.90;42.20;28.60;96470.00;;;;5055704;28;20220;-81
2023/06/17 09:13:32;;;;;;;3.35;2.25;;;28.90;42.70;28.60;96465.00;;;;5050993;28;20282;-81
2023/06/17 09:16:01;;;;;;;2.40;2.20;;;28.90;42.60;28.70;96470.00;;;;5060063;28;20208;-80
2023/06/17 09:18:42;;;;;;;2.22;2.13;;;29.00;42.90;28.80;96463.00;;;;5056863;28;20195;-81
2023/06/17 09:21:09;;;;;;;3.10;2.10;;;29.00;42.60;28.90;96474.00;;;;5054941;28;20193;-80
2023/06/17 09:23:38;;;;;;;2.85;2.10;;;29.10;42.70;29.10;96467.00;;;;5058265;28;20295;-80
2023/06/17 09:26:08;;;;;;;2.10;1.98;;;29.20;41.50;29.10;96472.00;;;;5052725;28;20614;-80
2023/06/17 09:28:36;;;;;;;2.33;2.15;;;29.30;40.80;29.10;96463.00;;;;5055373;28;20284;-80
2023/06/17 09:31:05;;;;;;;1.90;1.80;;;29.40;40.80;29.20;96463.00;;;;5055828;28;20284;-80
2023/06/17 09:33:33;;;;;;;3.20;2.20;;;29.40;40.70;29.30;96459.00;;;;5056715;28;20219;-80
2023/06/17 09:36:01;;;;;;;2.35;2.10;;;29.50;40.30;29.30;96460.00;;;;5053067;28;20231;-80
2023/06/17 09:38:31;;;;;;;2.50;2.30;;;29.50;39.90;29.30;96461.00;;;;5047726;28;20197;-80
2023/06/17 09:41:00;;;;;;;2.67;2.13;;;29.60;39.80;29.20;96459.00;;;;5055226;28;20300;-79
2023/06/17 09:43:28;;;;;;;2.08;1.88;;;29.60;39.60;29.20;96457.00;;;;5055858;28;20276;-80
2023/06/17 09:45:59;;;;;;;2.97;2.13;;;29.50;39.30;29.10;96460.00;;;;5056367;28;20197;-80
2023/06/17 09:48:31;;;;;;;3.10;2.30;;;29.50;39.40;29.10;96461.00;;;;5051527;28;20260;-79
2023/06/17 09:51:00;;;;;;;2.35;2.20;;;29.50;39.60;29.20;96452.00;;;;5050899;28;20658;-80
2023/06/17 09:53:29;;;;;;;2.80;2.00;;;29.60;39.70;29.40;96457.00;;;;5020616;28;20579;-80
2023/06/17 09:56:00;;;;;;;2.20;2.10;;;29.70;40.20;29.60;96456.00;;;;5053180;28;20204;-79
2023/06/17 09:58:30;;;;;;;2.83;2.00;;;30.00;39.70;29.80;96457.00;;;;5050258;28;20213;-83
2023/06/17 10:01:06;;;;;;;2.05;1.95;;;30.20;38.70;30.00;96453.00;;;;5055633;28;20230;-81
2023/06/17 10:03:34;;;;;;;2.40;2.20;;;30.50;38.10;30.20;96452.00;;;;5062884;28;20212;-81
2023/06/17 10:06:09;;;;;;;2.45;2.15;;;30.90;38.10;30.40;96442.00;;;;5065266;28;20197;-82
2023/06/17 10:08:40;;;;;;;2.50;2.30;;;31.10;37.10;30.50;96442.00;;;;5060526;28;20226;-80
2023/06/17 10:11:10;;;;;;;5.43;1.90;;;31.30;36.50;30.50;96442.00;;;;5059176;28;20201;-80
2023/06/17 10:13:41;;;;;;;3.35;2.10;;;31.40;36.40;30.60;96445.00;;;;5056868;28;20339;-81
2023/06/17 10:16:14;;;;;;;2.28;2.10;;;31.50;36.50;30.70;96446.00;;;;5043792;28;20194;-81
2023/06/17 10:18:45;;;;;;;3.47;2.13;;;31.60;36.30;30.90;96440.00;;;;5052764;28;20220;-80
2023/06/17 10:21:14;;;;;;;2.15;2.05;;;31.70;36.70;31.00;96438.00;;;;5052907;28;20847;-80
2023/06/17 10:23:43;;;;;;;2.13;1.92;;;31.70;36.40;31.10;96447.00;;;;5051180;28;20212;-81
2023/06/17 10:26:15;;;;;;;2.70;2.05;;;31.90;35.70;31.10;96443.00;;;;5042496;28;20208;-78
2023/06/17 10:28:59;;;;;;;2.30;1.92;;;31.90;35.00;31.00;96440.00;;;;5044348;28;20204;-79
2023/06/17 10:31:29;;;;;;;1.90;1.80;;;31.90;34.40;30.90;96443.00;;;;5049267;28;20250;-79
2023/06/17 10:34:03;;;;;;;3.47;2.10;;;31.80;34.10;30.80;96431.00;;;;5029726;28;20252;-80
2023/06/17 10:36:35;;;;;;;2.15;1.95;;;31.70;33.70;30.60;96436.00;;;;5053847;28;20210;-81
2023/06/17 10:39:07;;;;;;;4.80;2.45;;;31.60;34.10;30.50;96435.00;;;;5044419;28;20224;-83
2023/06/17 10:42:02;;;;;;;2.15;1.95;;;31.30;34.20;30.40;96426.00;;;;5050776;28;20200;-80
2023/06/17 10:44:45;;;;;;;1.80;1.70;;;31.20;34.70;30.40;96431.00;;;;5050458;28;20213;-80
2023/06/17 10:47:31;;;;;;;2.40;2.20;;;31.20;34.90;30.50;96431.00;;;;5051827;28;20204;-81
2023/06/17 10:50:01;;;;;;;2.22;2.13;;;31.10;34.80;30.60;96428.00;;;;5054486;28;20279;-81
2023/06/17 10:52:32;;;;;;;2.33;2.15;;;31.10;35.10;30.70;96420.00;;;;5041172;28;20197;-91
2023/06/17 10:55:04;;;;;;;2.05;1.88;;;31.10;35.20;30.70;96425.00;;;;5046454;28;20722;-91
2023/06/17 10:57:41;;;;;;;2.60;2.17;;;31.10;34.80;30.70;96424.00;;;;5050484;28;20208;-91
2023/06/17 11:00:12;;;;;;;2.22;1.95;;;31.10;34.50;30.60;96409.00;;;;5061471;28;20215;-91
2023/06/17 11:02:40;;;;;;;1.95;1.75;;;31.10;34.30;30.60;96416.00;;;;5041926;28;20197;-91